メインページ
METAR-TAF:

METAR-TAF

空港 :

西安咸陽国際空港

西安, 中華人民共和国

緯度: 34-26N, 経度: 108-45E, 海抜: 479m

現時点の気象観測

当レポートは35分前の23:00(UTC)に作成
北東の風 12kt、から東/北東の間で変化する
気温 14°C
湿度 77%
気圧 1016 hPa
視程10km以上
高度6600ftの曇り
小雨

METAR: ZLXY 242300Z 04006MPS 010V070 9999 -RA OVC066 14/10 Q1016 NOSIG

時間: 07:35 (23:35 UTC)

予報

当レポートは4時間3分前の19:32(UTC)に作成
予報は25日の 00時(UTC)から 25日の 24時(UTC)まで有効
東/北東の風 8kt、最大19ktの突風を伴う
視程: 6000m
高度4000ftの雲はほとんどない

TAF: ZLXY 241932Z 2500/2524 06004G10MPS 6000 FEW040 TX17/2507Z TN14/2522Z

4,000以上の空港の気象観測と天気予報(METAR報とTAF報)

利用可能な観測所は地図上に黄色い丸と赤い丸で示す。

丸の上にカーソルを重ねると観測所名を参照できる。

次にクリックすると気象観測と天気予報を参照できる。

マップの切り替え:黒色「×」印の緑ボタンをクリックして拡大、「-」印の緑ボタンをクリックして縮小、緑色の三角印をクリックして隣りの地図に切り替え


METAR-TAF: